createdAt,value
2023-02-14T00:00:10.441Z,30.10
2023-02-14T00:02:38.259Z,36.78
2023-02-14T00:05:06.699Z,39.55
2023-02-14T00:07:34.340Z,34.38
2023-02-14T00:10:02.113Z,37.08
2023-02-14T00:12:29.833Z,39.80
2023-02-14T00:15:15.129Z,37.63
2023-02-14T00:17:44.289Z,40.33
2023-02-14T00:20:12.707Z,40.60
2023-02-14T00:22:40.435Z,35.97
2023-02-14T00:25:08.611Z,40.42
2023-02-14T00:27:36.330Z,36.15
2023-02-14T00:30:04.322Z,38.42
2023-02-14T00:32:32.389Z,36.15
2023-02-14T00:35:01.862Z,38.83
2023-02-14T00:37:29.593Z,34.95
2023-02-14T00:39:57.399Z,32.53
2023-02-14T00:42:25.261Z,36.45
2023-02-14T00:44:52.897Z,36.30
2023-02-14T00:47:20.585Z,35.35
2023-02-14T00:49:48.351Z,38.47
2023-02-14T00:52:17.541Z,34.65
2023-02-14T00:54:45.261Z,36.78
2023-02-14T00:57:13.047Z,31.85
2023-02-14T00:59:40.708Z,33.70
2023-02-14T01:02:08.601Z,36.40
2023-02-14T01:04:36.312Z,32.15
2023-02-14T01:07:04.300Z,31.75
2023-02-14T01:09:33.628Z,36.08
2023-02-14T01:12:01.375Z,32.55
2023-02-14T01:14:29.067Z,38.20
2023-02-14T01:16:56.751Z,32.28
2023-02-14T01:19:24.407Z,30.98
2023-02-14T01:21:52.101Z,36.25
2023-02-14T01:24:19.796Z,33.97
2023-02-14T01:26:48.893Z,34.58
2023-02-14T01:29:16.638Z,34.38
2023-02-14T01:31:44.997Z,37.85
2023-02-14T01:34:12.981Z,34.97
2023-02-14T01:36:41.108Z,34.65
2023-02-14T01:39:13.609Z,36.55
2023-02-14T01:41:44.393Z,36.15
2023-02-14T01:44:45.218Z,31.20
2023-02-14T01:47:15.344Z,30.40
2023-02-14T01:49:46.840Z,34.35
2023-02-14T01:52:19.171Z,37.35
2023-02-14T01:54:53.119Z,39.13
2023-02-14T01:57:23.339Z,31.98
2023-02-14T01:59:55.567Z,33.10
2023-02-14T02:02:24.703Z,30.70
2023-02-14T02:04:57.062Z,36.53
2023-02-14T02:07:26.998Z,35.78
2023-02-14T02:09:57.666Z,29.98
2023-02-14T02:12:25.759Z,30.92
2023-02-14T02:14:56.692Z,35.65
2023-02-14T02:17:33.554Z,38.05
2023-02-14T02:20:33.826Z,36.40
2023-02-14T02:23:37.927Z,32.28
2023-02-14T02:26:38.802Z,39.30
2023-02-14T02:29:26.593Z,34.35
2023-02-14T02:32:28.158Z,38.05
2023-02-14T02:35:21.914Z,34.00
2023-02-14T02:38:01.180Z,35.53
2023-02-14T02:40:42.526Z,33.78
2023-02-14T02:43:21.675Z,36.35
2023-02-14T02:46:12.614Z,31.70
2023-02-14T02:48:45.424Z,33.72
2023-02-14T02:51:39.093Z,30.90
2023-02-14T02:54:15.105Z,35.55
2023-02-14T02:56:51.052Z,37.85
2023-02-14T02:59:23.237Z,40.00
2023-02-14T03:01:56.111Z,36.45
2023-02-14T03:04:41.432Z,36.22
2023-02-14T03:07:24.363Z,36.90
2023-02-14T03:09:54.935Z,36.88
2023-02-14T03:12:42.310Z,33.25
2023-02-14T03:15:18.938Z,35.30
2023-02-14T03:18:00.851Z,35.80
2023-02-14T03:20:41.150Z,34.78
2023-02-14T03:23:17.150Z,35.28
2023-02-14T03:25:51.766Z,32.88
2023-02-14T03:28:23.817Z,36.25
2023-02-14T03:30:59.907Z,35.97
2023-02-14T03:33:33.325Z,33.45
2023-02-14T03:36:04.956Z,34.80
2023-02-14T03:38:42.339Z,35.75
2023-02-14T03:41:15.868Z,37.60
2023-02-14T03:43:47.954Z,34.10
2023-02-14T03:46:21.067Z,33.88
2023-02-14T03:48:52.436Z,35.40
2023-02-14T03:51:22.281Z,34.72
2023-02-14T03:53:56.170Z,31.83
2023-02-14T03:56:31.173Z,34.88
2023-02-14T03:59:06.945Z,34.03
2023-02-14T04:01:40.238Z,32.03
2023-02-14T04:04:10.209Z,36.28
2023-02-14T04:06:38.042Z,37.95
2023-02-14T04:09:07.130Z,36.03
2023-02-14T04:11:35.634Z,30.80
2023-02-14T04:14:03.602Z,31.88
2023-02-14T04:16:51.601Z,36.50
2023-02-14T04:19:24.244Z,42.67
2023-02-14T04:21:52.562Z,35.20
2023-02-14T04:24:21.753Z,36.78
2023-02-14T04:27:10.582Z,34.92
2023-02-14T04:29:39.734Z,36.60
2023-02-14T04:32:08.994Z,39.00
2023-02-14T04:34:37.125Z,41.10
2023-02-14T04:37:04.975Z,39.33
2023-02-14T04:39:34.395Z,37.60
2023-02-14T04:42:02.139Z,40.92
2023-02-14T04:44:29.804Z,39.40
2023-02-14T04:46:57.499Z,38.42
2023-02-14T04:49:25.114Z,39.92
2023-02-14T04:51:53.021Z,41.58
2023-02-14T04:54:20.776Z,35.40
2023-02-14T04:56:49.892Z,41.03
2023-02-14T04:59:17.701Z,39.55
2023-02-14T05:01:45.606Z,44.80
2023-02-14T05:04:13.701Z,43.28
2023-02-14T05:06:41.345Z,39.90
2023-02-14T05:09:09.164Z,44.05
2023-02-14T05:11:36.805Z,43.35
2023-02-14T05:14:05.955Z,41.70
2023-02-14T05:16:33.742Z,47.60
2023-02-14T05:19:01.504Z,46.63
2023-02-14T05:21:33.075Z,43.10
2023-02-14T05:24:00.847Z,42.80
2023-02-14T05:26:29.154Z,41.75
2023-02-14T05:28:57.339Z,44.42
2023-02-14T05:31:26.639Z,40.35
2023-02-14T05:33:54.391Z,44.88
2023-02-14T05:36:22.111Z,44.70
2023-02-14T05:38:49.790Z,45.95
2023-02-14T05:41:17.450Z,47.25
2023-02-14T05:43:45.100Z,40.38
2023-02-14T05:46:13.008Z,46.83
2023-02-14T05:48:42.103Z,43.30
2023-02-14T05:51:11.686Z,44.15
2023-02-14T05:53:39.436Z,48.63
2023-02-14T05:56:07.723Z,45.95
2023-02-14T05:58:35.435Z,47.25
2023-02-14T06:01:03.249Z,46.45
2023-02-14T06:03:31.051Z,48.97
2023-02-14T06:06:00.121Z,45.88
2023-02-14T06:08:27.894Z,49.58
2023-02-14T06:10:55.882Z,45.45
2023-02-14T06:13:24.856Z,47.55
2023-02-14T06:15:52.719Z,48.78
2023-02-14T06:18:20.487Z,50.03
2023-02-14T06:20:48.191Z,49.33
2023-02-14T06:23:17.346Z,45.50
2023-02-14T06:25:45.148Z,45.22
2023-02-14T06:28:12.796Z,54.95
2023-02-14T06:30:40.593Z,47.75
2023-02-14T06:33:08.496Z,52.00
2023-02-14T06:35:36.190Z,46.67
2023-02-14T06:38:03.853Z,49.65
2023-02-14T06:40:32.990Z,46.40
2023-02-14T06:43:00.720Z,50.58
2023-02-14T06:45:28.575Z,50.75
2023-02-14T06:47:56.411Z,47.53
2023-02-14T06:50:24.169Z,46.35
2023-02-14T06:52:51.873Z,51.72
2023-02-14T06:55:20.292Z,50.40
2023-02-14T06:57:49.488Z,48.05
2023-02-14T07:00:17.990Z,50.92
2023-02-14T07:02:46.321Z,43.92
2023-02-14T07:05:15.330Z,48.13
2023-02-14T07:07:43.183Z,45.90
2023-02-14T07:10:11.539Z,40.08
2023-02-14T07:12:40.192Z,49.67
2023-02-14T07:15:11.789Z,39.95
2023-02-14T07:17:40.276Z,42.42
2023-02-14T07:20:09.511Z,42.60
2023-02-14T07:22:38.155Z,45.90
2023-02-14T07:25:06.344Z,41.13
2023-02-14T07:27:34.287Z,46.15
2023-02-14T07:30:02.015Z,41.15
2023-02-14T07:32:31.357Z,42.38
2023-02-14T07:34:59.108Z,44.28
2023-02-14T07:37:26.851Z,47.42
2023-02-14T07:39:54.538Z,45.28
2023-02-14T07:42:22.294Z,50.60
2023-02-14T07:44:49.940Z,45.55
2023-02-14T07:47:17.659Z,41.17
2023-02-14T07:49:46.737Z,39.35
2023-02-14T07:52:14.464Z,42.42
2023-02-14T07:54:42.231Z,42.50
2023-02-14T07:57:10.105Z,51.78
2023-02-14T07:59:37.810Z,45.08
2023-02-14T08:02:05.485Z,48.88
2023-02-14T08:04:33.991Z,48.15
2023-02-14T08:07:03.145Z,45.88
2023-02-14T08:09:31.014Z,47.83
2023-02-14T08:12:17.545Z,49.10
2023-02-14T08:14:45.517Z,43.30
2023-02-14T08:17:13.934Z,43.33
2023-02-14T08:19:42.120Z,49.15
2023-02-14T08:22:11.230Z,45.90
2023-02-14T08:24:38.987Z,45.97
2023-02-14T08:27:06.738Z,53.28
2023-02-14T08:29:34.557Z,48.22
2023-02-14T08:32:02.490Z,40.03
2023-02-14T08:34:30.301Z,44.72
2023-02-14T08:36:57.912Z,41.72
2023-02-14T08:39:27.131Z,37.33
2023-02-14T08:41:54.857Z,34.45
2023-02-14T08:44:22.510Z,36.20
2023-02-14T08:46:50.306Z,33.00
2023-02-14T08:49:18.188Z,35.65
2023-02-14T08:51:46.058Z,30.70
2023-02-14T08:54:14.122Z,37.83
2023-02-14T08:56:43.382Z,34.45
2023-02-14T08:59:11.100Z,31.08
2023-02-14T09:01:39.011Z,33.08
2023-02-14T09:04:06.911Z,34.07
2023-02-14T09:06:34.638Z,29.20
2023-02-14T09:09:02.730Z,31.83
2023-02-14T09:24:48.958Z,29.40
2023-02-14T09:27:16.745Z,29.57
2023-02-14T09:29:44.700Z,37.63
2023-02-14T09:32:12.564Z,30.60
2023-02-14T09:34:40.429Z,30.90
2023-02-14T09:37:25.863Z,29.97
2023-02-14T09:39:55.013Z,31.13
2023-02-14T09:42:42.409Z,31.17
2023-02-14T09:45:14.182Z,26.80
2023-02-14T09:47:48.409Z,28.97
2023-02-14T09:50:23.552Z,30.73
2023-02-14T09:52:57.236Z,30.93
2023-02-14T09:55:30.966Z,30.10
2023-02-14T09:58:06.938Z,28.80
2023-02-14T10:00:39.036Z,28.83
2023-02-14T10:03:32.895Z,30.27
2023-02-14T10:06:05.627Z,30.80
2023-02-14T10:08:48.267Z,31.40
2023-02-14T10:11:22.140Z,33.10
2023-02-14T10:13:53.142Z,28.87
2023-02-14T10:16:27.211Z,32.13
2023-02-14T10:19:01.516Z,24.53
2023-02-14T10:21:34.631Z,28.97
2023-02-14T10:24:10.567Z,31.60
2023-02-14T10:26:41.759Z,36.30
2023-02-14T10:29:15.564Z,38.23
2023-02-14T10:31:55.531Z,35.97
2023-02-14T10:34:30.782Z,31.17
2023-02-14T10:37:19.938Z,31.60
2023-02-14T10:40:06.117Z,36.53
2023-02-14T10:42:44.169Z,33.37
2023-02-14T10:45:22.758Z,32.83
2023-02-14T10:47:57.419Z,36.77
2023-02-14T10:50:31.952Z,32.00
2023-02-14T10:53:15.167Z,33.73
2023-02-14T10:55:48.476Z,32.27
2023-02-14T10:58:20.939Z,41.47
2023-02-14T11:00:56.473Z,28.23
2023-02-14T11:03:25.275Z,31.80
2023-02-14T11:05:53.060Z,32.13
2023-02-14T11:08:26.892Z,29.40
2023-02-14T11:10:56.542Z,33.03
2023-02-14T11:13:34.796Z,31.60
2023-02-14T11:16:05.588Z,36.00
2023-02-14T11:18:36.043Z,33.50
2023-02-14T11:21:07.478Z,31.60
2023-02-14T11:23:37.482Z,30.40
2023-02-14T11:26:08.494Z,27.20
2023-02-14T11:28:44.484Z,28.40
2023-02-14T11:31:12.315Z,25.73
2023-02-14T11:33:42.302Z,31.00
2023-02-14T11:36:13.407Z,30.60
2023-02-14T11:38:43.269Z,28.80
2023-02-14T11:41:14.854Z,36.83
2023-02-14T11:43:45.375Z,26.53
2023-02-14T11:46:25.703Z,30.33
2023-02-14T11:48:59.845Z,33.50
2023-02-14T11:51:34.797Z,30.77
2023-02-14T11:54:06.062Z,27.97
2023-02-14T11:56:47.859Z,29.97
2023-02-14T11:59:28.408Z,35.53
2023-02-14T12:01:58.921Z,31.60
2023-02-14T12:04:38.166Z,29.37
2023-02-14T12:07:19.076Z,32.28
2023-02-14T12:09:47.974Z,28.33
2023-02-14T12:12:23.312Z,32.95
2023-02-14T12:14:52.436Z,30.65
2023-02-14T12:17:30.528Z,29.88
2023-02-14T12:20:05.011Z,29.25
2023-02-14T12:22:38.676Z,29.05
2023-02-14T12:25:15.459Z,33.95
2023-02-14T12:27:49.568Z,34.08
2023-02-14T12:30:22.473Z,27.90
2023-02-14T12:32:52.282Z,27.00
2023-02-14T12:35:41.365Z,28.70
2023-02-14T12:38:18.273Z,27.90
2023-02-14T12:40:57.472Z,26.10
2023-02-14T12:43:45.724Z,39.40
2023-02-14T12:49:41.180Z,30.55
2023-02-14T12:52:23.335Z,32.03
2023-02-14T12:55:07.234Z,31.92
2023-02-14T12:57:45.350Z,33.55
2023-02-14T13:00:25.231Z,36.65
2023-02-14T13:03:20.223Z,32.40
2023-02-14T13:05:59.379Z,32.30
2023-02-14T13:08:49.865Z,33.00
2023-02-14T13:11:30.291Z,31.90
2023-02-14T13:14:11.181Z,30.20
2023-02-14T13:16:48.091Z,32.20
2023-02-14T13:19:33.290Z,31.70
2023-02-14T13:22:02.470Z,35.58
2023-02-14T13:24:39.166Z,28.90
2023-02-14T13:27:10.784Z,37.13
2023-02-14T13:29:46.269Z,30.48
2023-02-14T13:32:18.080Z,33.60
2023-02-14T13:34:48.807Z,40.00
2023-02-14T13:37:19.598Z,40.83
2023-02-14T13:39:51.498Z,36.35
2023-02-14T13:42:51.638Z,35.47
2023-02-14T13:45:54.511Z,36.60
2023-02-14T13:48:25.998Z,34.05
2023-02-14T13:50:58.421Z,33.30
2023-02-14T13:53:35.044Z,35.75
2023-02-14T13:56:05.123Z,32.35
2023-02-14T13:58:33.629Z,37.80
2023-02-14T14:01:39.758Z,36.60
2023-02-14T14:04:36.800Z,36.00
2023-02-14T14:07:20.956Z,30.70
2023-02-14T14:09:56.906Z,37.83
2023-02-14T14:12:41.792Z,42.17
2023-02-14T14:15:18.522Z,34.25
2023-02-14T14:17:50.281Z,36.60
2023-02-14T14:20:48.987Z,31.27
2023-02-14T14:23:40.571Z,54.97
2023-02-14T14:26:37.170Z,29.83
2023-02-14T14:29:12.290Z,28.83
2023-02-14T14:31:42.272Z,33.58
2023-02-14T14:34:17.709Z,38.92
2023-02-14T14:36:47.163Z,35.72
2023-02-14T14:39:27.789Z,31.85
2023-02-14T14:41:56.026Z,35.72
2023-02-14T14:44:25.741Z,34.45
2023-02-14T14:46:53.676Z,35.20
2023-02-14T14:49:22.568Z,33.70
2023-02-14T14:51:51.851Z,27.73
2023-02-14T14:54:21.896Z,32.67
2023-02-14T14:56:52.885Z,39.30
2023-02-14T14:59:30.417Z,37.72
2023-02-14T15:01:58.148Z,32.55
2023-02-14T15:04:28.686Z,38.40
2023-02-14T15:06:59.283Z,39.10
2023-02-14T15:09:33.633Z,39.40
2023-02-14T15:12:21.647Z,34.22
2023-02-14T15:14:54.576Z,35.55
2023-02-14T15:17:26.137Z,36.42
2023-02-14T15:19:57.500Z,37.45
2023-02-14T15:22:29.580Z,35.85
2023-02-14T15:24:58.894Z,37.75
2023-02-14T15:27:28.795Z,35.10
2023-02-14T15:30:01.494Z,43.17
2023-02-14T15:32:33.385Z,33.90
2023-02-14T15:35:04.667Z,42.00
2023-02-14T15:37:34.718Z,36.50
2023-02-14T15:40:03.628Z,45.50
2023-02-14T15:42:33.737Z,42.33
2023-02-14T15:45:23.774Z,36.47
2023-02-14T15:47:53.743Z,49.50
2023-02-14T15:50:25.222Z,39.50
2023-02-14T15:52:56.790Z,37.97
2023-02-14T15:55:27.508Z,41.38
2023-02-14T15:57:57.950Z,38.05
2023-02-14T16:00:26.781Z,39.80
2023-02-14T16:02:57.557Z,36.05
2023-02-14T16:05:27.426Z,40.53
2023-02-14T16:08:03.484Z,37.83
2023-02-14T16:10:33.753Z,37.63
2023-02-14T16:13:06.496Z,39.42
2023-02-14T16:15:36.632Z,38.75
2023-02-14T16:18:17.387Z,37.28
2023-02-14T16:20:47.070Z,41.22
2023-02-14T16:23:24.386Z,41.90
2023-02-14T16:25:53.223Z,36.70
2023-02-14T16:28:22.006Z,38.38
2023-02-14T16:30:55.967Z,49.13
2023-02-14T16:33:26.508Z,39.63
2023-02-14T16:35:55.008Z,44.50
2023-02-14T16:38:24.112Z,47.55
2023-02-14T16:40:55.083Z,40.25
2023-02-14T16:43:23.076Z,40.47
2023-02-14T16:45:50.861Z,38.83
2023-02-14T16:48:18.620Z,36.58
2023-02-14T16:50:47.497Z,44.45
2023-02-14T16:53:28.198Z,36.05
2023-02-14T16:55:58.191Z,42.08
2023-02-14T16:58:33.005Z,39.78
2023-02-14T17:01:01.029Z,42.22
2023-02-14T17:03:29.001Z,41.35
2023-02-14T17:05:58.987Z,39.17
2023-02-14T17:08:29.244Z,44.80
2023-02-14T17:11:01.441Z,40.00
2023-02-14T17:13:33.472Z,38.42
2023-02-14T17:16:01.871Z,44.60
2023-02-14T17:18:32.910Z,47.72
2023-02-14T17:21:01.676Z,37.08
2023-02-14T17:23:30.965Z,38.55
2023-02-14T17:25:58.660Z,46.38
2023-02-14T17:28:26.686Z,42.53
2023-02-14T17:30:54.904Z,40.95
2023-02-14T17:33:22.934Z,47.60
2023-02-14T17:35:51.023Z,41.35
2023-02-14T17:38:20.265Z,44.42
2023-02-14T17:40:49.333Z,45.17
2023-02-14T17:43:17.093Z,48.25
2023-02-14T17:45:44.786Z,52.90
2023-02-14T17:48:12.471Z,44.28
2023-02-14T17:50:40.185Z,44.65
2023-02-14T17:53:09.336Z,42.22
2023-02-14T17:55:37.732Z,47.42
2023-02-14T17:58:06.782Z,43.38
2023-02-14T18:00:34.856Z,43.17
2023-02-14T18:03:02.710Z,43.70
2023-02-14T18:05:30.558Z,42.92
2023-02-14T18:07:58.881Z,47.22
2023-02-14T18:10:26.600Z,39.90
2023-02-14T18:12:54.436Z,46.63
2023-02-14T18:15:23.664Z,39.33
2023-02-14T18:17:51.576Z,49.80
2023-02-14T18:20:19.690Z,42.65
2023-02-14T18:22:47.449Z,47.95
2023-02-14T18:25:15.172Z,42.70
2023-02-14T18:27:42.897Z,40.10
2023-02-14T18:30:11.344Z,42.25
2023-02-14T18:32:40.428Z,44.13
2023-02-14T18:35:08.858Z,43.10
2023-02-14T18:37:36.706Z,43.97
2023-02-14T18:40:04.520Z,45.85
2023-02-14T18:42:32.178Z,43.67
2023-02-14T18:44:59.816Z,39.08
2023-02-14T18:47:27.498Z,40.15
2023-02-14T18:49:56.656Z,46.58
2023-02-14T18:52:25.149Z,37.67
2023-02-14T18:54:53.317Z,44.63
2023-02-14T18:57:21.115Z,41.65
2023-02-14T18:59:48.846Z,46.90
2023-02-14T19:02:16.730Z,44.55
2023-02-14T19:04:44.511Z,46.10
2023-02-14T19:07:13.695Z,41.42
2023-02-14T19:09:43.054Z,46.33
2023-02-14T19:12:11.730Z,41.30
2023-02-14T19:14:39.518Z,41.92
2023-02-14T19:17:07.285Z,40.33
2023-02-14T19:19:35.966Z,47.47
2023-02-14T19:22:03.761Z,49.22
2023-02-14T19:24:33.045Z,42.85
2023-02-14T19:27:00.816Z,39.38
2023-02-14T19:29:28.898Z,41.35
2023-02-14T19:31:56.867Z,43.42
2023-02-14T19:34:29.179Z,48.22
2023-02-14T19:36:59.583Z,43.58
2023-02-14T19:39:29.511Z,43.90
2023-02-14T19:41:59.816Z,36.05
2023-02-14T19:44:29.224Z,40.50
2023-02-14T19:47:00.051Z,47.13
2023-02-14T19:49:29.875Z,47.15
2023-02-14T19:51:58.065Z,42.55
2023-02-14T19:54:25.835Z,44.50
2023-02-14T19:56:56.114Z,42.08
2023-02-14T19:59:25.447Z,40.20
2023-02-14T20:01:54.523Z,41.55
2023-02-14T20:04:24.534Z,38.03
2023-02-14T20:06:53.222Z,34.72
2023-02-14T20:09:22.844Z,41.10
2023-02-14T20:11:52.171Z,44.40
2023-02-14T20:14:21.896Z,47.50
2023-02-14T20:16:51.422Z,46.85
2023-02-14T20:19:22.891Z,41.15
2023-02-14T20:21:52.565Z,48.10
2023-02-14T20:24:23.886Z,45.10
2023-02-14T20:26:54.306Z,42.08
2023-02-14T20:29:24.265Z,48.47
2023-02-14T20:31:58.075Z,40.28
2023-02-14T20:34:26.752Z,38.75
2023-02-14T20:36:55.976Z,40.60
2023-02-14T20:39:28.923Z,40.70
2023-02-14T20:41:56.677Z,40.67
2023-02-14T20:44:24.713Z,42.38
2023-02-14T20:46:57.301Z,49.20
2023-02-14T20:49:26.593Z,38.25
2023-02-14T20:51:54.494Z,39.72
2023-02-14T20:54:24.825Z,40.38
2023-02-14T20:56:54.001Z,43.53
2023-02-14T20:59:26.985Z,41.83
2023-02-14T21:01:57.408Z,46.25
2023-02-14T21:04:26.558Z,45.80
2023-02-14T21:06:55.177Z,42.95
2023-02-14T21:09:22.965Z,51.70
2023-02-14T21:11:54.110Z,44.75
2023-02-14T21:14:22.641Z,38.40
2023-02-14T21:16:51.682Z,43.30
2023-02-14T21:19:20.854Z,37.83
2023-02-14T21:21:49.177Z,41.58
2023-02-14T21:24:17.757Z,42.10
2023-02-14T21:26:46.097Z,48.88
2023-02-14T21:29:14.350Z,47.17
2023-02-14T21:31:43.128Z,43.15
2023-02-14T21:34:11.467Z,44.92
2023-02-14T21:36:41.287Z,43.13
2023-02-14T21:39:09.689Z,42.50
2023-02-14T21:41:38.379Z,42.25
2023-02-14T21:44:07.552Z,44.97
2023-02-14T21:46:41.076Z,43.53
2023-02-14T21:49:30.235Z,41.70
2023-02-14T21:51:59.427Z,45.30
2023-02-14T21:54:28.145Z,43.50
2023-02-14T21:56:57.894Z,53.00
2023-02-14T21:59:26.290Z,41.20
2023-02-14T22:01:54.072Z,52.30
2023-02-14T22:04:21.861Z,48.00
2023-02-14T22:06:49.811Z,52.70
2023-02-14T22:09:19.670Z,47.63
2023-02-14T22:11:48.634Z,50.47
2023-02-14T22:14:19.285Z,46.60
2023-02-14T22:16:47.230Z,43.35
2023-02-14T22:19:16.863Z,45.47
2023-02-14T22:21:47.620Z,51.20
2023-02-14T22:24:15.772Z,48.85
2023-02-14T22:26:45.154Z,52.22
2023-02-14T22:29:15.550Z,46.67
2023-02-14T22:31:46.347Z,47.80
2023-02-14T22:34:17.907Z,46.05
2023-02-14T22:36:45.756Z,41.20
2023-02-14T22:39:15.185Z,47.70
2023-02-14T22:41:44.517Z,46.92
2023-02-14T22:44:15.045Z,42.70
2023-02-14T22:46:43.745Z,44.78
2023-02-14T22:49:11.679Z,44.97
2023-02-14T22:51:41.594Z,44.42
2023-02-14T22:54:12.300Z,37.80
2023-02-14T22:56:42.207Z,43.45
2023-02-14T22:59:17.284Z,39.40
2023-02-14T23:01:45.217Z,41.53
2023-02-14T23:04:13.377Z,46.72
2023-02-14T23:06:41.181Z,44.75
2023-02-14T23:09:11.622Z,53.25
2023-02-14T23:11:44.286Z,45.25
2023-02-14T23:14:32.451Z,44.75
2023-02-14T23:17:20.482Z,42.58
2023-02-14T23:20:06.678Z,42.17
2023-02-14T23:22:36.307Z,44.80
2023-02-14T23:25:07.069Z,44.97
2023-02-14T23:27:36.790Z,41.80
2023-02-14T23:30:08.770Z,45.70
2023-02-14T23:32:36.760Z,47.40
2023-02-14T23:35:04.917Z,47.40
2023-02-14T23:37:33.507Z,46.03
2023-02-14T23:40:01.228Z,41.05
2023-02-14T23:42:29.565Z,45.40
2023-02-14T23:45:17.831Z,39.40
2023-02-14T23:47:47.204Z,37.75
2023-02-14T23:50:15.832Z,42.53
2023-02-14T23:52:44.957Z,42.78
2023-02-14T23:55:13.778Z,44.08
2023-02-14T23:57:42.076Z,43.08
